sensor_id;sensor_type;location;lat;lon;timestamp;P1;durP1;ratioP1;P2;durP2;ratioP2
70683;SDS011;58263;48.146;11.440;2023-06-04T00:00:33;7.10;;;4.10;;
70683;SDS011;58263;48.146;11.440;2023-06-04T00:02:59;4.82;;;3.40;;
70683;SDS011;58263;48.146;11.440;2023-06-04T00:05:24;6.65;;;3.70;;
70683;SDS011;58263;48.146;11.440;2023-06-04T00:07:51;6.93;;;3.92;;
70683;SDS011;58263;48.146;11.440;2023-06-04T00:10:17;6.03;;;4.25;;
70683;SDS011;58263;48.146;11.440;2023-06-04T00:12:42;7.03;;;3.85;;
70683;SDS011;58263;48.146;11.440;2023-06-04T00:15:07;8.27;;;3.72;;
70683;SDS011;58263;48.146;11.440;2023-06-04T00:17:33;6.70;;;4.05;;
70683;SDS011;58263;48.146;11.440;2023-06-04T00:19:58;5.97;;;3.77;;
70683;SDS011;58263;48.146;11.440;2023-06-04T00:22:24;7.00;;;4.07;;
70683;SDS011;58263;48.146;11.440;2023-06-04T00:24:49;7.25;;;3.72;;
70683;SDS011;58263;48.146;11.440;2023-06-04T00:27:15;6.05;;;3.95;;
70683;SDS011;58263;48.146;11.440;2023-06-04T00:29:40;3.60;;;3.20;;
70683;SDS011;58263;48.146;11.440;2023-06-04T00:32:05;7.23;;;4.50;;
70683;SDS011;58263;48.146;11.440;2023-06-04T00:34:31;7.85;;;4.28;;
70683;SDS011;58263;48.146;11.440;2023-06-04T00:36:56;8.35;;;4.20;;
70683;SDS011;58263;48.146;11.440;2023-06-04T00:39:22;8.27;;;3.80;;
70683;SDS011;58263;48.146;11.440;2023-06-04T00:41:47;6.97;;;3.47;;
70683;SDS011;58263;48.146;11.440;2023-06-04T00:44:12;3.83;;;2.80;;
70683;SDS011;58263;48.146;11.440;2023-06-04T00:46:38;5.60;;;2.80;;
70683;SDS011;58263;48.146;11.440;2023-06-04T00:49:04;4.20;;;2.88;;
70683;SDS011;58263;48.146;11.440;2023-06-04T00:51:30;4.10;;;2.95;;
70683;SDS011;58263;48.146;11.440;2023-06-04T00:53:56;5.35;;;2.75;;
70683;SDS011;58263;48.146;11.440;2023-06-04T00:56:23;8.23;;;2.95;;
70683;SDS011;58263;48.146;11.440;2023-06-04T00:58:48;3.10;;;2.50;;
70683;SDS011;58263;48.146;11.440;2023-06-04T01:04:06;4.28;;;2.40;;
70683;SDS011;58263;48.146;11.440;2023-06-04T01:06:43;3.53;;;2.67;;
70683;SDS011;58263;48.146;11.440;2023-06-04T01:09:10;7.00;;;3.20;;
70683;SDS011;58263;48.146;11.440;2023-06-04T01:11:36;3.72;;;2.90;;
70683;SDS011;58263;48.146;11.440;2023-06-04T01:14:03;7.13;;;2.72;;
70683;SDS011;58263;48.146;11.440;2023-06-04T01:16:35;4.60;;;3.05;;
70683;SDS011;58263;48.146;11.440;2023-06-04T01:19:08;3.33;;;2.80;;
70683;SDS011;58263;48.146;11.440;2023-06-04T01:21:46;5.03;;;3.13;;
70683;SDS011;58263;48.146;11.440;2023-06-04T01:24:16;3.50;;;2.80;;
70683;SDS011;58263;48.146;11.440;2023-06-04T01:26:46;7.38;;;3.40;;
70683;SDS011;58263;48.146;11.440;2023-06-04T01:29:12;4.35;;;3.00;;
70683;SDS011;58263;48.146;11.440;2023-06-04T01:31:37;6.75;;;3.50;;
70683;SDS011;58263;48.146;11.440;2023-06-04T01:34:03;4.20;;;3.20;;
70683;SDS011;58263;48.146;11.440;2023-06-04T01:36:28;5.53;;;3.00;;
70683;SDS011;58263;48.146;11.440;2023-06-04T01:38:54;4.32;;;2.90;;
70683;SDS011;58263;48.146;11.440;2023-06-04T01:41:19;6.10;;;3.20;;
70683;SDS011;58263;48.146;11.440;2023-06-04T01:43:45;4.03;;;3.20;;
70683;SDS011;58263;48.146;11.440;2023-06-04T01:46:10;5.43;;;3.50;;
70683;SDS011;58263;48.146;11.440;2023-06-04T01:48:35;4.73;;;3.40;;
70683;SDS011;58263;48.146;11.440;2023-06-04T01:51:01;3.42;;;2.75;;
70683;SDS011;58263;48.146;11.440;2023-06-04T01:53:27;6.47;;;3.90;;
70683;SDS011;58263;48.146;11.440;2023-06-04T01:55:52;5.65;;;3.40;;
70683;SDS011;58263;48.146;11.440;2023-06-04T01:58:17;5.37;;;3.30;;
70683;SDS011;58263;48.146;11.440;2023-06-04T02:00:51;4.60;;;3.38;;
70683;SDS011;58263;48.146;11.440;2023-06-04T02:03:17;4.97;;;3.13;;
70683;SDS011;58263;48.146;11.440;2023-06-04T02:05:43;6.55;;;3.08;;
70683;SDS011;58263;48.146;11.440;2023-06-04T02:08:11;4.95;;;3.20;;
70683;SDS011;58263;48.146;11.440;2023-06-04T02:10:37;4.63;;;2.85;;
70683;SDS011;58263;48.146;11.440;2023-06-04T02:13:02;6.15;;;3.15;;
70683;SDS011;58263;48.146;11.440;2023-06-04T02:15:29;5.32;;;2.97;;
70683;SDS011;58263;48.146;11.440;2023-06-04T02:17:56;6.05;;;3.30;;
70683;SDS011;58263;48.146;11.440;2023-06-04T02:20:27;7.10;;;2.88;;
70683;SDS011;58263;48.146;11.440;2023-06-04T02:22:54;4.50;;;3.22;;
70683;SDS011;58263;48.146;11.440;2023-06-04T02:25:20;3.90;;;3.05;;
70683;SDS011;58263;48.146;11.440;2023-06-04T02:27:45;5.85;;;3.08;;
70683;SDS011;58263;48.146;11.440;2023-06-04T02:30:10;4.93;;;3.60;;
70683;SDS011;58263;48.146;11.440;2023-06-04T02:32:36;5.05;;;2.97;;
70683;SDS011;58263;48.146;11.440;2023-06-04T02:35:02;5.07;;;3.10;;
70683;SDS011;58263;48.146;11.440;2023-06-04T02:37:28;3.60;;;2.75;;
70683;SDS011;58263;48.146;11.440;2023-06-04T02:39:53;3.67;;;3.10;;
70683;SDS011;58263;48.146;11.440;2023-06-04T02:42:18;6.25;;;3.00;;
70683;SDS011;58263;48.146;11.440;2023-06-04T02:44:45;7.13;;;3.10;;
70683;SDS011;58263;48.146;11.440;2023-06-04T02:47:10;4.70;;;3.33;;
70683;SDS011;58263;48.146;11.440;2023-06-04T02:49:35;5.03;;;2.80;;
70683;SDS011;58263;48.146;11.440;2023-06-04T02:52:01;4.27;;;2.70;;
70683;SDS011;58263;48.146;11.440;2023-06-04T02:54:26;5.13;;;3.57;;
70683;SDS011;58263;48.146;11.440;2023-06-04T02:56:51;5.33;;;3.23;;
70683;SDS011;58263;48.146;11.440;2023-06-04T02:59:17;4.65;;;3.38;;
70683;SDS011;58263;48.146;11.440;2023-06-04T03:01:42;4.30;;;3.03;;
70683;SDS011;58263;48.146;11.440;2023-06-04T03:04:08;4.70;;;3.40;;
70683;SDS011;58263;48.146;11.440;2023-06-04T03:06:35;8.13;;;3.30;;
70683;SDS011;58263;48.146;11.440;2023-06-04T03:09:04;7.82;;;3.53;;
70683;SDS011;58263;48.146;11.440;2023-06-04T03:11:30;5.57;;;3.13;;
70683;SDS011;58263;48.146;11.440;2023-06-04T03:13:55;7.60;;;3.63;;
70683;SDS011;58263;48.146;11.440;2023-06-04T03:16:21;3.83;;;2.77;;
70683;SDS011;58263;48.146;11.440;2023-06-04T03:18:46;6.55;;;3.63;;
70683;SDS011;58263;48.146;11.440;2023-06-04T03:21:11;4.43;;;2.95;;
70683;SDS011;58263;48.146;11.440;2023-06-04T03:23:37;4.75;;;2.92;;
70683;SDS011;58263;48.146;11.440;2023-06-04T03:26:03;6.00;;;3.20;;
70683;SDS011;58263;48.146;11.440;2023-06-04T03:28:29;5.90;;;3.20;;
70683;SDS011;58263;48.146;11.440;2023-06-04T03:30:56;5.28;;;3.38;;
70683;SDS011;58263;48.146;11.440;2023-06-04T03:33:21;8.57;;;3.77;;
70683;SDS011;58263;48.146;11.440;2023-06-04T03:35:46;10.13;;;3.83;;
70683;SDS011;58263;48.146;11.440;2023-06-04T03:38:13;3.45;;;2.97;;
70683;SDS011;58263;48.146;11.440;2023-06-04T03:40:40;5.72;;;3.20;;
70683;SDS011;58263;48.146;11.440;2023-06-04T03:43:05;5.27;;;3.47;;
70683;SDS011;58263;48.146;11.440;2023-06-04T03:45:31;5.35;;;3.28;;
70683;SDS011;58263;48.146;11.440;2023-06-04T03:47:56;4.43;;;3.10;;
70683;SDS011;58263;48.146;11.440;2023-06-04T03:50:21;5.30;;;3.63;;
70683;SDS011;58263;48.146;11.440;2023-06-04T03:52:48;5.28;;;3.65;;
70683;SDS011;58263;48.146;11.440;2023-06-04T03:55:13;4.43;;;3.13;;
70683;SDS011;58263;48.146;11.440;2023-06-04T03:57:39;5.85;;;3.60;;
70683;SDS011;58263;48.146;11.440;2023-06-04T04:00:08;5.05;;;3.25;;
70683;SDS011;58263;48.146;11.440;2023-06-04T04:02:42;5.38;;;3.85;;
70683;SDS011;58263;48.146;11.440;2023-06-04T04:05:08;5.22;;;3.50;;
70683;SDS011;58263;48.146;11.440;2023-06-04T04:07:34;10.00;;;4.10;;
70683;SDS011;58263;48.146;11.440;2023-06-04T04:10:00;6.60;;;4.00;;
70683;SDS011;58263;48.146;11.440;2023-06-04T04:12:25;8.53;;;4.83;;
70683;SDS011;58263;48.146;11.440;2023-06-04T04:14:50;6.15;;;3.78;;
70683;SDS011;58263;48.146;11.440;2023-06-04T04:17:16;7.10;;;4.10;;
70683;SDS011;58263;48.146;11.440;2023-06-04T04:19:41;7.28;;;3.50;;
70683;SDS011;58263;48.146;11.440;2023-06-04T04:22:07;7.10;;;3.63;;
70683;SDS011;58263;48.146;11.440;2023-06-04T04:24:34;5.70;;;4.00;;
70683;SDS011;58263;48.146;11.440;2023-06-04T04:27:00;5.80;;;3.67;;
70683;SDS011;58263;48.146;11.440;2023-06-04T04:29:29;7.22;;;4.13;;
70683;SDS011;58263;48.146;11.440;2023-06-04T04:31:58;7.75;;;3.17;;
70683;SDS011;58263;48.146;11.440;2023-06-04T04:34:25;6.53;;;3.65;;
70683;SDS011;58263;48.146;11.440;2023-06-04T04:36:51;4.97;;;3.47;;
70683;SDS011;58263;48.146;11.440;2023-06-04T04:39:26;6.15;;;4.18;;
70683;SDS011;58263;48.146;11.440;2023-06-04T04:41:52;6.93;;;3.90;;
70683;SDS011;58263;48.146;11.440;2023-06-04T04:44:19;6.13;;;3.47;;
70683;SDS011;58263;48.146;11.440;2023-06-04T04:46:44;5.78;;;3.45;;
70683;SDS011;58263;48.146;11.440;2023-06-04T04:49:10;6.40;;;3.80;;
70683;SDS011;58263;48.146;11.440;2023-06-04T04:51:35;6.68;;;3.30;;
70683;SDS011;58263;48.146;11.440;2023-06-04T04:54:01;6.00;;;3.28;;
70683;SDS011;58263;48.146;11.440;2023-06-04T04:56:27;8.02;;;3.70;;
70683;SDS011;58263;48.146;11.440;2023-06-04T04:58:54;6.55;;;3.95;;
70683;SDS011;58263;48.146;11.440;2023-06-04T05:01:20;6.25;;;3.72;;
70683;SDS011;58263;48.146;11.440;2023-06-04T05:03:45;4.90;;;3.50;;
70683;SDS011;58263;48.146;11.440;2023-06-04T05:06:11;6.00;;;3.58;;
70683;SDS011;58263;48.146;11.440;2023-06-04T05:08:36;4.50;;;3.28;;
70683;SDS011;58263;48.146;11.440;2023-06-04T05:11:02;6.25;;;3.65;;
70683;SDS011;58263;48.146;11.440;2023-06-04T05:13:27;7.57;;;3.38;;
70683;SDS011;58263;48.146;11.440;2023-06-04T05:15:52;6.40;;;4.00;;
70683;SDS011;58263;48.146;11.440;2023-06-04T05:18:18;4.22;;;3.17;;
70683;SDS011;58263;48.146;11.440;2023-06-04T05:20:54;6.65;;;3.55;;
70683;SDS011;58263;48.146;11.440;2023-06-04T05:23:20;12.15;;;3.85;;
70683;SDS011;58263;48.146;11.440;2023-06-04T05:25:45;5.00;;;3.30;;
70683;SDS011;58263;48.146;11.440;2023-06-04T05:28:13;6.93;;;3.10;;
70683;SDS011;58263;48.146;11.440;2023-06-04T05:30:39;4.50;;;3.00;;
70683;SDS011;58263;48.146;11.440;2023-06-04T05:33:06;4.63;;;3.30;;
70683;SDS011;58263;48.146;11.440;2023-06-04T05:35:31;4.93;;;3.20;;
70683;SDS011;58263;48.146;11.440;2023-06-04T05:37:57;5.10;;;3.33;;
70683;SDS011;58263;48.146;11.440;2023-06-04T05:40:25;5.07;;;2.85;;
70683;SDS011;58263;48.146;11.440;2023-06-04T05:42:51;4.60;;;3.00;;
70683;SDS011;58263;48.146;11.440;2023-06-04T05:45:16;6.30;;;3.27;;
70683;SDS011;58263;48.146;11.440;2023-06-04T05:47:42;6.53;;;3.25;;
70683;SDS011;58263;48.146;11.440;2023-06-04T05:50:07;4.27;;;3.20;;
70683;SDS011;58263;48.146;11.440;2023-06-04T05:52:33;5.95;;;3.28;;
70683;SDS011;58263;48.146;11.440;2023-06-04T05:54:59;3.10;;;2.75;;
70683;SDS011;58263;48.146;11.440;2023-06-04T05:57:25;4.43;;;2.80;;
70683;SDS011;58263;48.146;11.440;2023-06-04T05:59:50;6.75;;;2.70;;
70683;SDS011;58263;48.146;11.440;2023-06-04T06:02:16;4.07;;;2.97;;
70683;SDS011;58263;48.146;11.440;2023-06-04T06:04:41;5.72;;;2.50;;
70683;SDS011;58263;48.146;11.440;2023-06-04T06:07:07;4.07;;;2.70;;
70683;SDS011;58263;48.146;11.440;2023-06-04T06:09:33;5.32;;;2.67;;
70683;SDS011;58263;48.146;11.440;2023-06-04T06:11:58;2.92;;;2.50;;
70683;SDS011;58263;48.146;11.440;2023-06-04T06:14:23;4.30;;;2.67;;
70683;SDS011;58263;48.146;11.440;2023-06-04T06:16:49;5.53;;;2.83;;
70683;SDS011;58263;48.146;11.440;2023-06-04T06:19:14;5.10;;;2.90;;
70683;SDS011;58263;48.146;11.440;2023-06-04T06:21:40;4.53;;;2.47;;
70683;SDS011;58263;48.146;11.440;2023-06-04T06:24:05;5.00;;;2.50;;
70683;SDS011;58263;48.146;11.440;2023-06-04T06:26:30;3.85;;;2.55;;
70683;SDS011;58263;48.146;11.440;2023-06-04T06:28:56;4.43;;;3.03;;
70683;SDS011;58263;48.146;11.440;2023-06-04T06:31:22;6.18;;;3.08;;
70683;SDS011;58263;48.146;11.440;2023-06-04T06:33:47;4.63;;;2.50;;
70683;SDS011;58263;48.146;11.440;2023-06-04T06:36:12;8.07;;;2.63;;
70683;SDS011;58263;48.146;11.440;2023-06-04T06:38:38;4.35;;;2.72;;
70683;SDS011;58263;48.146;11.440;2023-06-04T06:41:03;4.95;;;2.72;;
70683;SDS011;58263;48.146;11.440;2023-06-04T06:43:29;3.90;;;2.72;;
70683;SDS011;58263;48.146;11.440;2023-06-04T06:45:54;5.68;;;2.75;;
70683;SDS011;58263;48.146;11.440;2023-06-04T06:48:20;3.75;;;2.47;;
70683;SDS011;58263;48.146;11.440;2023-06-04T06:50:45;6.18;;;2.22;;
70683;SDS011;58263;48.146;11.440;2023-06-04T06:53:10;4.30;;;2.47;;
70683;SDS011;58263;48.146;11.440;2023-06-04T06:55:36;5.70;;;2.67;;
70683;SDS011;58263;48.146;11.440;2023-06-04T06:58:01;8.10;;;4.20;;
70683;SDS011;58263;48.146;11.440;2023-06-04T07:00:26;3.87;;;2.50;;
70683;SDS011;58263;48.146;11.440;2023-06-04T07:02:55;3.08;;;2.35;;
70683;SDS011;58263;48.146;11.440;2023-06-04T07:05:21;3.95;;;2.65;;
70683;SDS011;58263;48.146;11.440;2023-06-04T07:07:46;5.97;;;2.90;;
70683;SDS011;58263;48.146;11.440;2023-06-04T07:10:13;3.10;;;2.47;;
70683;SDS011;58263;48.146;11.440;2023-06-04T07:12:38;5.38;;;2.88;;
70683;SDS011;58263;48.146;11.440;2023-06-04T07:15:05;4.78;;;2.70;;
70683;SDS011;58263;48.146;11.440;2023-06-04T07:17:31;3.80;;;2.58;;
70683;SDS011;58263;48.146;11.440;2023-06-04T07:19:57;4.80;;;2.50;;
70683;SDS011;58263;48.146;11.440;2023-06-04T07:22:22;5.30;;;2.97;;
70683;SDS011;58263;48.146;11.440;2023-06-04T07:24:47;3.17;;;2.63;;
70683;SDS011;58263;48.146;11.440;2023-06-04T07:27:13;4.73;;;2.70;;
70683;SDS011;58263;48.146;11.440;2023-06-04T07:29:39;3.72;;;2.67;;
70683;SDS011;58263;48.146;11.440;2023-06-04T07:32:05;3.50;;;2.65;;
70683;SDS011;58263;48.146;11.440;2023-06-04T07:34:30;6.63;;;3.00;;
70683;SDS011;58263;48.146;11.440;2023-06-04T07:36:56;6.88;;;2.67;;
70683;SDS011;58263;48.146;11.440;2023-06-04T07:39:21;4.27;;;2.33;;
70683;SDS011;58263;48.146;11.440;2023-06-04T07:41:47;3.65;;;2.75;;
70683;SDS011;58263;48.146;11.440;2023-06-04T07:44:12;4.27;;;3.07;;
70683;SDS011;58263;48.146;11.440;2023-06-04T07:46:37;3.23;;;2.83;;
70683;SDS011;58263;48.146;11.440;2023-06-04T07:49:02;5.00;;;2.90;;
70683;SDS011;58263;48.146;11.440;2023-06-04T07:51:28;3.27;;;2.83;;
70683;SDS011;58263;48.146;11.440;2023-06-04T07:53:53;6.50;;;2.87;;
70683;SDS011;58263;48.146;11.440;2023-06-04T07:56:18;4.77;;;3.10;;
70683;SDS011;58263;48.146;11.440;2023-06-04T07:58:44;4.77;;;2.77;;
70683;SDS011;58263;48.146;11.440;2023-06-04T08:01:10;8.60;;;3.42;;
70683;SDS011;58263;48.146;11.440;2023-06-04T08:03:35;8.80;;;2.90;;
70683;SDS011;58263;48.146;11.440;2023-06-04T08:06:01;4.15;;;2.67;;
70683;SDS011;58263;48.146;11.440;2023-06-04T08:08:27;4.57;;;3.08;;
70683;SDS011;58263;48.146;11.440;2023-06-04T08:10:52;3.60;;;2.60;;
70683;SDS011;58263;48.146;11.440;2023-06-04T08:13:17;4.40;;;2.53;;
70683;SDS011;58263;48.146;11.440;2023-06-04T08:15:43;3.50;;;2.80;;
70683;SDS011;58263;48.146;11.440;2023-06-04T08:18:08;3.72;;;2.63;;
70683;SDS011;58263;48.146;11.440;2023-06-04T08:20:33;5.57;;;3.10;;
70683;SDS011;58263;48.146;11.440;2023-06-04T08:22:59;4.70;;;2.77;;
70683;SDS011;58263;48.146;11.440;2023-06-04T08:25:24;7.07;;;2.72;;
70683;SDS011;58263;48.146;11.440;2023-06-04T08:27:49;6.65;;;2.97;;
70683;SDS011;58263;48.146;11.440;2023-06-04T08:30:15;3.28;;;2.88;;
70683;SDS011;58263;48.146;11.440;2023-06-04T08:32:41;4.15;;;2.83;;
70683;SDS011;58263;48.146;11.440;2023-06-04T08:35:06;5.07;;;2.37;;
70683;SDS011;58263;48.146;11.440;2023-06-04T08:37:32;4.05;;;2.88;;
70683;SDS011;58263;48.146;11.440;2023-06-04T08:39:57;5.35;;;2.75;;
70683;SDS011;58263;48.146;11.440;2023-06-04T08:42:27;3.43;;;2.70;;
70683;SDS011;58263;48.146;11.440;2023-06-04T08:44:56;6.45;;;2.38;;
70683;SDS011;58263;48.146;11.440;2023-06-04T08:47:25;4.63;;;2.60;;
70683;SDS011;58263;48.146;11.440;2023-06-04T08:49:54;3.80;;;2.42;;
70683;SDS011;58263;48.146;11.440;2023-06-04T08:52:23;2.90;;;2.40;;
70683;SDS011;58263;48.146;11.440;2023-06-04T08:54:50;4.60;;;2.70;;
70683;SDS011;58263;48.146;11.440;2023-06-04T08:57:20;3.33;;;3.03;;
70683;SDS011;58263;48.146;11.440;2023-06-04T08:59:46;5.22;;;2.70;;
70683;SDS011;58263;48.146;11.440;2023-06-04T09:02:15;3.95;;;2.85;;
70683;SDS011;58263;48.146;11.440;2023-06-04T09:04:40;8.30;;;2.50;;
70683;SDS011;58263;48.146;11.440;2023-06-04T09:07:07;4.35;;;2.58;;
70683;SDS011;58263;48.146;11.440;2023-06-04T09:09:37;6.80;;;2.60;;
70683;SDS011;58263;48.146;11.440;2023-06-04T09:12:05;3.92;;;2.60;;
70683;SDS011;58263;48.146;11.440;2023-06-04T09:14:35;3.42;;;2.40;;
70683;SDS011;58263;48.146;11.440;2023-06-04T09:17:00;4.57;;;2.45;;
70683;SDS011;58263;48.146;11.440;2023-06-04T09:19:26;6.50;;;3.03;;
70683;SDS011;58263;48.146;11.440;2023-06-04T09:21:52;3.20;;;2.67;;
70683;SDS011;58263;48.146;11.440;2023-06-04T09:24:20;4.30;;;2.25;;
70683;SDS011;58263;48.146;11.440;2023-06-04T09:26:46;5.43;;;2.53;;
70683;SDS011;58263;48.146;11.440;2023-06-04T09:29:11;4.45;;;2.67;;
70683;SDS011;58263;48.146;11.440;2023-06-04T09:31:37;8.40;;;3.10;;
70683;SDS011;58263;48.146;11.440;2023-06-04T09:34:03;3.45;;;2.30;;
70683;SDS011;58263;48.146;11.440;2023-06-04T09:36:32;3.47;;;2.40;;
70683;SDS011;58263;48.146;11.440;2023-06-04T09:38:58;5.22;;;2.88;;
70683;SDS011;58263;48.146;11.440;2023-06-04T09:41:24;4.05;;;2.70;;
70683;SDS011;58263;48.146;11.440;2023-06-04T09:43:51;4.55;;;2.80;;
70683;SDS011;58263;48.146;11.440;2023-06-04T09:46:25;7.25;;;2.90;;
70683;SDS011;58263;48.146;11.440;2023-06-04T09:48:58;3.55;;;2.58;;
70683;SDS011;58263;48.146;11.440;2023-06-04T09:51:25;6.45;;;2.80;;
70683;SDS011;58263;48.146;11.440;2023-06-04T09:54:09;7.78;;;2.92;;
70683;SDS011;58263;48.146;11.440;2023-06-04T09:56:44;4.85;;;2.70;;
70683;SDS011;58263;48.146;11.440;2023-06-04T09:59:09;3.70;;;2.28;;
70683;SDS011;58263;48.146;11.440;2023-06-04T10:01:36;4.90;;;2.70;;
70683;SDS011;58263;48.146;11.440;2023-06-04T10:04:07;4.47;;;2.85;;
70683;SDS011;58263;48.146;11.440;2023-06-04T10:06:33;6.03;;;2.72;;
70683;SDS011;58263;48.146;11.440;2023-06-04T10:09:03;3.58;;;2.88;;
70683;SDS011;58263;48.146;11.440;2023-06-04T10:11:31;6.07;;;2.40;;
70683;SDS011;58263;48.146;11.440;2023-06-04T10:14:02;2.80;;;2.40;;
70683;SDS011;58263;48.146;11.440;2023-06-04T10:16:31;6.13;;;2.60;;
70683;SDS011;58263;48.146;11.440;2023-06-04T10:18:57;5.57;;;2.55;;
70683;SDS011;58263;48.146;11.440;2023-06-04T10:21:24;5.10;;;2.85;;
70683;SDS011;58263;48.146;11.440;2023-06-04T10:23:51;5.45;;;3.30;;
70683;SDS011;58263;48.146;11.440;2023-06-04T10:26:16;3.10;;;2.75;;
70683;SDS011;58263;48.146;11.440;2023-06-04T10:28:43;7.57;;;3.20;;
70683;SDS011;58263;48.146;11.440;2023-06-04T10:31:09;6.32;;;2.97;;
70683;SDS011;58263;48.146;11.440;2023-06-04T10:33:34;9.55;;;2.70;;
70683;SDS011;58263;48.146;11.440;2023-06-04T10:36:10;6.00;;;3.00;;
70683;SDS011;58263;48.146;11.440;2023-06-04T10:38:44;5.65;;;2.90;;
70683;SDS011;58263;48.146;11.440;2023-06-04T10:41:14;3.58;;;2.50;;
70683;SDS011;58263;48.146;11.440;2023-06-04T10:43:41;5.57;;;3.00;;
70683;SDS011;58263;48.146;11.440;2023-06-04T10:46:13;3.53;;;3.22;;
70683;SDS011;58263;48.146;11.440;2023-06-04T10:48:49;5.43;;;2.92;;
70683;SDS011;58263;48.146;11.440;2023-06-04T10:51:16;5.07;;;2.90;;
70683;SDS011;58263;48.146;11.440;2023-06-04T10:53:56;3.38;;;2.80;;
70683;SDS011;58263;48.146;11.440;2023-06-04T10:56:26;4.13;;;2.90;;
70683;SDS011;58263;48.146;11.440;2023-06-04T10:58:57;4.22;;;2.92;;
70683;SDS011;58263;48.146;11.440;2023-06-04T11:01:23;4.80;;;3.00;;
70683;SDS011;58263;48.146;11.440;2023-06-04T11:03:56;3.97;;;2.72;;
70683;SDS011;58263;48.146;11.440;2023-06-04T11:06:22;4.32;;;2.55;;
70683;SDS011;58263;48.146;11.440;2023-06-04T11:08:48;3.70;;;3.15;;
70683;SDS011;58263;48.146;11.440;2023-06-04T11:11:14;6.63;;;3.08;;
70683;SDS011;58263;48.146;11.440;2023-06-04T11:13:40;4.65;;;3.50;;
70683;SDS011;58263;48.146;11.440;2023-06-04T11:16:19;3.15;;;2.63;;
70683;SDS011;58263;48.146;11.440;2023-06-04T11:21:21;2.67;;;2.42;;
70683;SDS011;58263;48.146;11.440;2023-06-04T11:23:47;3.78;;;2.97;;
70683;SDS011;58263;48.146;11.440;2023-06-04T11:26:13;3.60;;;3.20;;
70683;SDS011;58263;48.146;11.440;2023-06-04T11:28:38;9.30;;;3.17;;
70683;SDS011;58263;48.146;11.440;2023-06-04T11:36:49;6.05;;;4.22;;
70683;SDS011;58263;48.146;11.440;2023-06-04T11:39:07;3.47;;;3.13;;
70683;SDS011;58263;48.146;11.440;2023-06-04T11:41:33;4.38;;;2.88;;
70683;SDS011;58263;48.146;11.440;2023-06-04T11:44:04;3.72;;;3.42;;
70683;SDS011;58263;48.146;11.440;2023-06-04T11:46:34;3.67;;;3.30;;
70683;SDS011;58263;48.146;11.440;2023-06-04T11:49:00;3.40;;;3.08;;
70683;SDS011;58263;48.146;11.440;2023-06-04T11:51:27;6.80;;;3.03;;
70683;SDS011;58263;48.146;11.440;2023-06-04T11:53:53;3.83;;;3.10;;
70683;SDS011;58263;48.146;11.440;2023-06-04T11:56:20;5.50;;;3.20;;
70683;SDS011;58263;48.146;11.440;2023-06-04T11:58:46;4.05;;;3.13;;
70683;SDS011;58263;48.146;11.440;2023-06-04T12:01:11;3.45;;;3.15;;
70683;SDS011;58263;48.146;11.440;2023-06-04T12:03:41;3.22;;;2.88;;
70683;SDS011;58263;48.146;11.440;2023-06-04T12:06:11;3.35;;;3.05;;
70683;SDS011;58263;48.146;11.440;2023-06-04T12:11:28;4.78;;;3.13;;
70683;SDS011;58263;48.146;11.440;2023-06-04T12:13:56;3.78;;;2.95;;
70683;SDS011;58263;48.146;11.440;2023-06-04T12:21:22;3.40;;;3.08;;
70683;SDS011;58263;48.146;11.440;2023-06-04T12:23:52;7.10;;;3.75;;
70683;SDS011;58263;48.146;11.440;2023-06-04T12:26:41;5.03;;;3.55;;
70683;SDS011;58263;48.146;11.440;2023-06-04T12:29:15;3.00;;;2.70;;
70683;SDS011;58263;48.146;11.440;2023-06-04T12:34:08;4.18;;;3.38;;
70683;SDS011;58263;48.146;11.440;2023-06-04T12:36:33;4.88;;;2.90;;
70683;SDS011;58263;48.146;11.440;2023-06-04T12:39:00;3.47;;;2.63;;
70683;SDS011;58263;48.146;11.440;2023-06-04T12:41:26;3.05;;;2.70;;
70683;SDS011;58263;48.146;11.440;2023-06-04T12:43:53;3.45;;;3.03;;
70683;SDS011;58263;48.146;11.440;2023-06-04T12:46:18;3.22;;;2.90;;
70683;SDS011;58263;48.146;11.440;2023-06-04T12:48:44;4.72;;;2.95;;
70683;SDS011;58263;48.146;11.440;2023-06-04T12:51:10;4.30;;;3.40;;
70683;SDS011;58263;48.146;11.440;2023-06-04T12:53:39;3.80;;;3.03;;
70683;SDS011;58263;48.146;11.440;2023-06-04T12:56:05;5.35;;;3.03;;
70683;SDS011;58263;48.146;11.440;2023-06-04T12:58:31;3.53;;;3.08;;
70683;SDS011;58263;48.146;11.440;2023-06-04T13:00:56;4.18;;;3.25;;
70683;SDS011;58263;48.146;11.440;2023-06-04T13:03:22;4.50;;;3.60;;
70683;SDS011;58263;48.146;11.440;2023-06-04T13:05:47;3.42;;;3.13;;
70683;SDS011;58263;48.146;11.440;2023-06-04T13:08:13;4.35;;;3.25;;
70683;SDS011;58263;48.146;11.440;2023-06-04T13:10:39;2.88;;;2.58;;
70683;SDS011;58263;48.146;11.440;2023-06-04T13:13:04;3.33;;;2.90;;
70683;SDS011;58263;48.146;11.440;2023-06-04T13:15:29;4.20;;;2.90;;
70683;SDS011;58263;48.146;11.440;2023-06-04T13:17:55;3.47;;;2.72;;
70683;SDS011;58263;48.146;11.440;2023-06-04T13:20:20;3.87;;;3.00;;
70683;SDS011;58263;48.146;11.440;2023-06-04T13:22:46;3.22;;;2.92;;
70683;SDS011;58263;48.146;11.440;2023-06-04T13:25:12;3.85;;;3.30;;
70683;SDS011;58263;48.146;11.440;2023-06-04T13:27:37;6.22;;;3.40;;
70683;SDS011;58263;48.146;11.440;2023-06-04T13:30:03;3.22;;;2.78;;
70683;SDS011;58263;48.146;11.440;2023-06-04T13:32:30;4.95;;;3.28;;
70683;SDS011;58263;48.146;11.440;2023-06-04T13:34:55;4.20;;;2.87;;
70683;SDS011;58263;48.146;11.440;2023-06-04T13:37:21;3.75;;;3.00;;
70683;SDS011;58263;48.146;11.440;2023-06-04T13:39:46;4.30;;;3.00;;
70683;SDS011;58263;48.146;11.440;2023-06-04T13:42:11;4.67;;;3.47;;
70683;SDS011;58263;48.146;11.440;2023-06-04T13:44:37;3.83;;;3.10;;
70683;SDS011;58263;48.146;11.440;2023-06-04T13:47:02;6.23;;;3.10;;
70683;SDS011;58263;48.146;11.440;2023-06-04T13:49:29;6.32;;;3.17;;
70683;SDS011;58263;48.146;11.440;2023-06-04T13:51:56;3.72;;;2.90;;
70683;SDS011;58263;48.146;11.440;2023-06-04T13:54:21;3.80;;;3.13;;
70683;SDS011;58263;48.146;11.440;2023-06-04T13:56:47;5.10;;;3.03;;
70683;SDS011;58263;48.146;11.440;2023-06-04T13:59:13;5.57;;;3.13;;
70683;SDS011;58263;48.146;11.440;2023-06-04T14:01:39;4.80;;;2.97;;
70683;SDS011;58263;48.146;11.440;2023-06-04T14:04:05;4.35;;;3.00;;
70683;SDS011;58263;48.146;11.440;2023-06-04T14:06:31;5.47;;;3.38;;
70683;SDS011;58263;48.146;11.440;2023-06-04T14:08:57;5.75;;;3.17;;
70683;SDS011;58263;48.146;11.440;2023-06-04T14:11:22;4.63;;;3.07;;
70683;SDS011;58263;48.146;11.440;2023-06-04T14:13:47;4.18;;;3.25;;
70683;SDS011;58263;48.146;11.440;2023-06-04T14:16:13;3.72;;;2.92;;
70683;SDS011;58263;48.146;11.440;2023-06-04T14:18:39;5.53;;;3.88;;
70683;SDS011;58263;48.146;11.440;2023-06-04T14:21:04;6.57;;;3.00;;
70683;SDS011;58263;48.146;11.440;2023-06-04T14:23:29;5.57;;;3.15;;
70683;SDS011;58263;48.146;11.440;2023-06-04T14:25:55;3.30;;;3.00;;
70683;SDS011;58263;48.146;11.440;2023-06-04T14:28:20;5.15;;;3.15;;
70683;SDS011;58263;48.146;11.440;2023-06-04T14:30:45;7.13;;;3.20;;
70683;SDS011;58263;48.146;11.440;2023-06-04T14:33:11;4.20;;;2.83;;
70683;SDS011;58263;48.146;11.440;2023-06-04T14:35:37;3.38;;;2.90;;
70683;SDS011;58263;48.146;11.440;2023-06-04T14:38:03;6.70;;;3.15;;
70683;SDS011;58263;48.146;11.440;2023-06-04T14:40:29;5.75;;;3.28;;
70683;SDS011;58263;48.146;11.440;2023-06-04T14:42:54;3.40;;;3.10;;
70683;SDS011;58263;48.146;11.440;2023-06-04T14:45:20;4.22;;;2.72;;
70683;SDS011;58263;48.146;11.440;2023-06-04T14:47:45;3.58;;;3.10;;
70683;SDS011;58263;48.146;11.440;2023-06-04T14:50:10;5.57;;;3.03;;